Time;durP1;ratioP1;P1;durP2;ratioP2;P2;SDS_P1;SDS_P2;PMS_P1;PMS_P2;Temp;Humidity;BMP_temperature;BMP_pressure;BME280_temperature;BME280_humidity;BME280_pressure;Samples;Min_cycle;Max_cycle;Signal;HPM_P1;HPM_P2
2021/11/28 00:57:27;;;;;;;40.65;21.92;;;;;;;1.75;94.25;99456.69;2371780;23;20142;-62
2021/11/28 00:58:29;;;;;;;44.35;23.33;;;;;;;1.74;94.10;99454.94;2032113;29;20546;-62
2021/11/28 00:59:31;;;;;;;37.92;21.08;;;;;;;1.75;94.65;99453.19;2023884;29;20057;-63
2021/11/28 01:00:34;;;;;;;42.60;23.95;;;;;;;1.75;94.23;99461.97;2024763;29;20052;-62
2021/11/28 01:01:36;;;;;;;40.05;22.63;;;;;;;1.75;94.58;99450.56;2032850;29;20136;-63
2021/11/28 01:02:40;;;;;;;44.25;25.10;;;;;;;1.75;94.56;99464.63;2032610;29;20052;-63
2021/11/28 01:03:43;;;;;;;43.00;24.83;;;;;;;1.76;94.21;99463.72;2032728;29;20120;-62
2021/11/28 01:04:46;;;;;;;44.10;25.60;;;;;;;1.76;94.47;99461.09;2024396;29;22279;-62
2021/11/28 01:05:50;;;;;;;39.30;22.63;;;;;;;1.76;94.60;99458.47;2024522;29;22529;-63
2021/11/28 01:06:51;;;;;;;37.47;22.77;;;;;;;1.76;94.38;99469.00;2025260;29;20132;-62
2021/11/28 01:07:53;;;;;;;35.00;21.80;;;;;;;1.77;94.43;99469.88;2032572;29;20180;-62
2021/11/28 01:08:55;;;;;;;41.97;23.13;;;;;;;1.78;94.32;99469.88;2032414;29;20116;-62
2021/11/28 01:09:57;;;;;;;44.88;25.58;;;;;;;1.77;94.74;99464.59;2032672;29;20029;-62
2021/11/28 01:10:59;;;;;;;43.33;24.20;;;;;;;1.78;94.78;99471.63;2032496;29;20049;-63
2021/11/28 01:12:02;;;;;;;42.92;24.60;;;;;;;1.77;94.45;99473.38;2034961;29;30228;-62
2021/11/28 01:13:04;;;;;;;42.72;24.30;;;;;;;1.78;94.50;99472.50;2034916;29;20084;-62
2021/11/28 01:14:06;;;;;;;41.67;23.08;;;;;;;1.79;94.71;99476.00;2032677;29;28635;-62
2021/11/28 01:15:11;;;;;;;43.45;23.98;;;;;;;1.79;94.56;99476.88;2032423;29;20040;-62
2021/11/28 01:16:13;;;;;;;41.47;22.73;;;;;;;1.80;94.21;99475.13;2031944;29;33914;-63
2021/11/28 01:17:15;;;;;;;38.75;23.77;;;;;;;1.81;94.47;99479.50;2024953;29;20155;-63
2021/11/28 01:18:17;;;;;;;41.42;23.45;;;;;;;1.82;94.52;99489.19;2024918;29;20279;-63
2021/11/28 01:19:19;;;;;;;42.35;24.30;;;;;;;1.80;94.78;99481.28;2033290;29;26495;-62
2021/11/28 01:20:21;;;;;;;39.05;21.60;;;;;;;1.80;94.63;99486.53;2033326;29;20045;-64
2021/11/28 01:21:24;;;;;;;39.78;23.27;;;;;;;1.83;94.38;99485.63;2032604;29;20179;-63
2021/11/28 01:22:26;;;;;;;42.08;23.73;;;;;;;1.83;94.70;99488.25;2032315;29;20119;-63
2021/11/28 01:23:28;;;;;;;40.42;23.30;;;;;;;1.82;94.52;99482.13;2024876;29;20100;-63
2021/11/28 01:24:30;;;;;;;43.10;24.13;;;;;;;1.80;94.77;99489.19;2032330;29;20075;-63
2021/11/28 01:25:33;;;;;;;42.03;24.67;;;;;;;1.82;94.38;99486.53;2025863;29;20048;-62
2021/11/28 01:26:36;;;;;;;38.60;22.40;;;;;;;1.82;94.04;99487.41;2031886;29;20047;-62
2021/11/28 01:27:38;;;;;;;39.05;23.23;;;;;;;1.83;94.49;99490.91;2031351;29;20195;-62
2021/11/28 01:28:41;;;;;;;39.20;22.33;;;;;;;1.83;94.74;99481.25;2034506;29;20044;-63
2021/11/28 01:29:44;;;;;;;37.70;22.05;;;;;;;1.82;94.40;99489.19;2032349;29;20052;-63
2021/11/28 01:30:48;;;;;;;40.05;24.00;;;;;;;1.81;94.15;99487.41;2024950;29;20184;-63
2021/11/28 01:31:50;;;;;;;42.35;22.70;;;;;;;1.79;94.77;99486.56;2033061;29;20052;-63
2021/11/28 01:32:52;;;;;;;37.38;20.85;;;;;;;1.80;94.50;99489.19;2032324;29;20065;-62
2021/11/28 01:33:55;;;;;;;38.97;23.90;;;;;;;1.80;93.99;99499.75;2032893;29;20159;-63
2021/11/28 01:34:59;;;;;;;36.67;21.95;;;;;;;1.82;94.50;99495.31;2032565;29;20055;-63
2021/11/28 01:36:01;;;;;;;38.63;22.73;;;;;;;1.80;94.16;99489.19;2032171;29;28105;-63
2021/11/28 01:37:05;;;;;;;35.08;22.10;;;;;;;1.82;94.51;99500.59;2033013;29;20053;-63
2021/11/28 01:38:07;;;;;;;40.58;22.63;;;;;;;1.81;94.46;99497.97;2040207;29;20045;-63
2021/11/28 01:39:10;;;;;;;35.97;22.50;;;;;;;1.82;94.41;99499.72;2040282;29;20120;-63
2021/11/28 01:40:18;;;;;;;39.67;22.90;;;;;;;1.82;94.04;99494.44;2024727;29;20053;-62
2021/11/28 01:41:19;;;;;;;41.35;24.63;;;;;;;1.82;94.36;99495.31;2033326;29;20815;-63
2021/11/28 01:42:37;;;;;;;43.22;23.55;;;;;;;1.83;94.43;99490.91;2040967;29;23945;-63
2021/11/28 01:43:39;;;;;;;40.72;21.77;;;;;;;1.82;94.61;99492.69;2041183;29;20786;-62
2021/11/28 01:44:41;;;;;;;44.53;24.85;;;;;;;1.82;94.54;99497.97;2041187;29;20037;-63
2021/11/28 01:45:46;;;;;;;39.50;22.73;;;;;;;1.83;94.31;99505.00;2032522;29;20112;-62
2021/11/28 01:46:48;;;;;;;32.88;20.30;;;;;;;1.84;94.29;99497.94;2028214;29;20045;-62
2021/11/28 01:47:53;;;;;;;39.92;23.70;;;;;;;1.84;94.81;99501.44;2032422;29;20084;-63
2021/11/28 01:48:56;;;;;;;38.38;23.55;;;;;;;1.84;94.33;99500.59;2024994;29;20167;-63
2021/11/28 01:50:00;;;;;;;41.97;23.40;;;;;;;1.83;94.11;99491.81;2024659;29;20172;-62
2021/11/28 01:51:04;;;;;;;35.60;20.55;;;;;;;1.84;94.65;99495.31;2024231;29;20049;-63
2021/11/28 01:52:07;;;;;;;40.45;22.60;;;;;;;1.85;94.66;99499.72;2024469;29;20041;-63
2021/11/28 01:53:27;;;;;;;39.42;23.40;;;;;;;1.83;94.65;99499.72;2024641;29;20151;-62
2021/11/28 01:54:29;;;;;;;38.33;21.48;;;;;;;1.84;94.22;99501.44;2016707;29;20787;-63
2021/11/28 01:55:33;;;;;;;38.17;21.92;;;;;;;1.85;94.53;99500.56;2024820;29;20159;-63
2021/11/28 01:56:35;;;;;;;40.60;23.77;;;;;;;1.84;94.69;99504.09;2016717;29;20486;-63
2021/11/28 01:57:38;;;;;;;41.58;23.75;;;;;;;1.84;94.17;99498.81;2016576;29;22030;-62
2021/11/28 01:58:41;;;;;;;44.03;24.30;;;;;;;1.84;94.88;99505.88;2024351;29;20049;-63
2021/11/28 01:59:43;;;;;;;40.22;24.58;;;;;;;1.85;94.75;99505.84;2024591;29;20163;-62
2021/11/28 02:00:52;;;;;;;41.05;24.35;;;;;;;1.85;94.83;99503.22;2024542;29;20160;-63
2021/11/28 02:01:56;;;;;;;40.35;24.20;;;;;;;1.86;94.41;99497.03;2024481;29;20063;-62
2021/11/28 02:03:00;;;;;;;38.97;24.13;;;;;;;1.85;94.37;99499.72;2024368;29;20088;-63
2021/11/28 02:04:03;;;;;;;39.70;21.58;;;;;;;1.87;94.62;99503.19;2024203;29;20257;-62
2021/11/28 02:05:05;;;;;;;33.90;20.67;;;;;;;1.86;94.73;99502.31;2025458;29;20045;-63
2021/11/28 02:06:12;;;;;;;40.92;23.83;;;;;;;1.87;94.69;99500.56;2025399;29;20883;-62
2021/11/28 02:07:15;;;;;;;40.53;22.60;;;;;;;1.86;95.04;99501.44;2024557;29;20049;-62
2021/11/28 02:08:17;;;;;;;38.03;21.98;;;;;;;1.86;94.97;99501.44;2016588;29;20096;-63
2021/11/28 02:09:19;;;;;;;40.92;23.50;;;;;;;1.86;94.29;99502.31;2016671;29;32376;-62
2021/11/28 02:10:22;;;;;;;39.28;23.00;;;;;;;1.87;94.64;99508.47;2023982;29;20045;-62
2021/11/28 02:11:27;;;;;;;37.17;22.73;;;;;;;1.86;94.54;99504.06;2024296;29;20060;-63
2021/11/28 02:12:30;;;;;;;37.05;20.55;;;;;;;1.88;94.73;99505.81;2024373;29;20070;-62
2021/11/28 02:13:32;;;;;;;39.45;22.85;;;;;;;1.87;94.46;99498.78;2032276;29;20060;-62
2021/11/28 02:14:39;;;;;;;46.17;24.80;;;;;;;1.87;94.55;99495.28;2031355;29;20950;-62
2021/11/28 02:15:42;;;;;;;45.75;25.35;;;;;;;1.85;94.69;99500.56;2023301;29;20045;-62
2021/11/28 02:16:46;;;;;;;40.42;24.17;;;;;;;1.87;94.86;99504.06;2027886;29;20816;-62
2021/11/28 02:17:55;;;;;;;39.75;22.08;;;;;;;1.88;94.78;99502.28;2032464;29;20052;-62
2021/11/28 02:19:00;;;;;;;43.50;25.85;;;;;;;1.86;94.35;99497.03;2032513;29;20992;-62
2021/11/28 02:20:08;;;;;;;45.15;24.33;;;;;;;1.87;94.94;99492.66;2024386;29;20171;-63
2021/11/28 02:21:12;;;;;;;43.38;24.55;;;;;;;1.86;94.89;99502.31;2018103;29;20159;-63
2021/11/28 02:22:14;;;;;;;42.38;25.42;;;;;;;1.87;94.27;99498.78;2017423;29;20900;-63
2021/11/28 02:23:16;;;;;;;45.65;25.83;;;;;;;1.87;94.29;99495.28;2024841;29;20988;-63
2021/11/28 02:24:18;;;;;;;42.05;25.02;;;;;;;1.87;95.15;99496.16;2031976;29;20049;-63
2021/11/28 02:25:24;;;;;;;42.42;24.40;;;;;;;1.88;95.07;99504.94;2031782;29;30823;-63
2021/11/28 02:26:29;;;;;;;39.55;22.27;;;;;;;1.88;95.02;99499.66;2024167;29;20049;-63
2021/11/28 02:27:31;;;;;;;41.47;23.35;;;;;;;1.88;94.90;99497.00;2024785;29;20141;-63
2021/11/28 02:28:35;;;;;;;37.40;22.13;;;;;;;1.89;94.86;99502.28;2031805;29;22764;-63
2021/11/28 02:29:40;;;;;;;42.95;24.35;;;;;;;1.89;95.04;99501.41;2024024;29;20049;-62
2021/11/28 02:30:45;;;;;;;38.92;22.58;;;;;;;1.89;94.86;99501.41;2017423;29;20072;-62
2021/11/28 02:31:47;;;;;;;45.45;24.50;;;;;;;1.86;94.49;99497.03;2024708;29;20149;-62
2021/11/28 02:32:50;;;;;;;42.97;23.92;;;;;;;1.84;94.17;99504.09;2024298;29;20041;-63
2021/11/28 02:33:51;;;;;;;39.33;22.95;;;;;;;1.80;93.65;99496.25;2024484;29;20140;-62
2021/11/28 02:34:54;;;;;;;42.50;24.08;;;;;;;1.80;94.07;99502.38;2031835;29;20934;-62
2021/11/28 02:35:56;;;;;;;40.20;24.58;;;;;;;1.82;94.40;99492.69;2023982;29;21043;-62
2021/11/28 02:36:58;;;;;;;38.25;23.30;;;;;;;1.82;94.06;99500.59;2024176;29;20103;-63
2021/11/28 02:38:04;;;;;;;32.50;20.80;;;;;;;1.82;94.45;99495.31;2024162;29;20084;-63
2021/11/28 02:39:09;;;;;;;35.92;21.48;;;;;;;1.82;94.26;99499.72;2025287;29;20235;-62
2021/11/28 02:40:18;;;;;;;35.13;22.27;;;;;;;1.78;94.44;99493.59;2032427;29;20942;-63
2021/11/28 02:41:20;;;;;;;35.72;21.73;;;;;;;1.76;94.00;99492.75;2023613;29;20045;-62
2021/11/28 02:42:25;;;;;;;34.20;20.85;;;;;;;1.77;94.37;99491.84;2024388;29;20930;-62
2021/11/28 02:43:29;;;;;;;30.75;19.55;;;;;;;1.77;93.72;99494.50;2031974;29;20083;-63
2021/11/28 02:44:33;;;;;;;31.17;19.80;;;;;;;1.73;93.60;99500.69;2024076;29;20177;-63
2021/11/28 02:45:36;;;;;;;28.17;19.20;;;;;;;1.71;94.00;99503.34;2024381;29;20029;-63
2021/11/28 02:46:41;;;;;;;30.35;19.23;;;;;;;1.67;93.41;99500.75;2024388;29;20811;-62
2021/11/28 02:47:44;;;;;;;27.50;17.80;;;;;;;1.69;93.50;99502.50;2024363;29;20052;-63
2021/11/28 02:48:45;;;;;;;29.60;18.42;;;;;;;1.69;93.73;99499.84;2024162;29;23083;-63
2021/11/28 02:49:47;;;;;;;29.75;18.98;;;;;;;1.65;93.42;99500.78;2023969;29;20810;-63
2021/11/28 02:50:49;;;;;;;28.67;18.23;;;;;;;1.67;93.59;99495.47;2024151;29;20571;-62
2021/11/28 02:51:52;;;;;;;30.20;19.75;;;;;;;1.65;93.52;99497.25;2032222;29;20044;-63
2021/11/28 02:52:59;;;;;;;30.58;20.23;;;;;;;1.63;93.39;99499.03;2032513;29;20949;-63
2021/11/28 02:54:05;;;;;;;33.65;20.42;;;;;;;1.63;93.58;99499.91;2023729;29;20048;-63
2021/11/28 02:55:08;;;;;;;29.75;19.50;;;;;;;1.65;93.47;99505.16;2016857;29;20999;-62
2021/11/28 02:56:12;;;;;;;29.42;19.15;;;;;;;1.63;93.50;99499.03;2023977;29;20068;-63
2021/11/28 02:57:14;;;;;;;29.92;18.73;;;;;;;1.64;93.50;99498.16;2032276;29;20049;-63
2021/11/28 02:58:20;;;;;;;29.75;19.48;;;;;;;1.62;93.99;99495.53;2031041;29;28995;-63
2021/11/28 02:59:22;;;;;;;33.25;20.35;;;;;;;1.61;93.64;99501.69;2031317;29;20914;-63
2021/11/28 03:00:29;;;;;;;34.30;21.20;;;;;;;1.59;94.00;99498.19;2024070;29;20041;-63
2021/11/28 03:01:31;;;;;;;33.90;20.30;;;;;;;1.60;94.12;99499.94;2025217;29;20045;-63
2021/11/28 03:02:59;;;;;;;28.83;18.98;;;;;;;1.60;94.25;99493.78;2023482;29;20049;-63
2021/11/28 03:04:03;;;;;;;35.20;20.40;;;;;;;1.57;93.62;99486.78;2024420;29;20056;-62
2021/11/28 03:05:05;;;;;;;35.97;21.38;;;;;;;1.57;93.65;99493.81;2024399;29;20313;-63
2021/11/28 03:06:08;;;;;;;34.38;19.88;;;;;;;1.58;94.21;99490.28;2031812;29;20396;-62
2021/11/28 03:07:16;;;;;;;32.92;20.08;;;;;;;1.58;93.66;99490.28;2032002;29;20183;-63
2021/11/28 03:08:18;;;;;;;27.48;17.48;;;;;;;1.57;93.76;99493.81;2023858;29;21178;-63
2021/11/28 03:09:20;;;;;;;30.70;20.13;;;;;;;1.57;93.81;99493.81;2024077;29;27183;-63
2021/11/28 03:10:43;;;;;;;32.22;19.77;;;;;;;1.52;94.17;99500.00;2024786;29;21593;-63
2021/11/28 03:11:45;;;;;;;35.15;20.80;;;;;;;1.51;93.92;99498.28;2024839;29;20049;-62
2021/11/28 03:12:49;;;;;;;34.95;20.48;;;;;;;1.52;94.24;99507.03;2032169;29;20198;-63
2021/11/28 03:13:53;;;;;;;33.17;21.13;;;;;;;1.50;94.09;99501.78;2031344;29;23178;-63
2021/11/28 03:14:56;;;;;;;34.47;21.38;;;;;;;1.48;93.76;99505.34;2025183;29;20519;-63
2021/11/28 03:16:03;;;;;;;32.95;20.45;;;;;;;1.49;94.28;99507.06;2024869;29;20124;-63
2021/11/28 03:17:08;;;;;;;32.58;20.55;;;;;;;1.47;94.35;99504.47;2031898;29;20837;-63
2021/11/28 03:18:18;;;;;;;35.72;21.95;;;;;;;1.48;94.19;99510.63;2031388;29;20128;-62
2021/11/28 03:19:20;;;;;;;33.22;20.15;;;;;;;1.47;94.30;99500.94;2025164;29;20190;-63
2021/11/28 03:20:22;;;;;;;38.08;22.20;;;;;;;1.47;94.01;99503.56;2023631;29;20235;-63
2021/11/28 03:21:31;;;;;;;30.10;19.33;;;;;;;1.48;94.46;99495.66;2016839;29;20160;-63
2021/11/28 03:22:33;;;;;;;34.38;22.13;;;;;;;1.48;94.58;99497.44;2024583;29;20037;-62
2021/11/28 03:23:37;;;;;;;36.28;22.08;;;;;;;1.47;94.56;99499.19;2024287;29;20179;-62
2021/11/28 03:24:38;;;;;;;36.17;21.92;;;;;;;1.47;94.54;99501.84;2024020;29;20045;-63
2021/11/28 03:25:41;;;;;;;35.55;22.50;;;;;;;1.47;94.54;99504.47;2024783;29;20053;-63
2021/11/28 03:26:47;;;;;;;35.67;21.88;;;;;;;1.47;93.90;99501.84;2024316;29;20049;-62
2021/11/28 03:27:49;;;;;;;35.22;22.00;;;;;;;1.48;93.87;99494.78;2023420;29;20100;-63
2021/11/28 03:28:59;;;;;;;36.03;22.13;;;;;;;1.47;94.46;99504.47;2023601;29;20099;-63
2021/11/28 03:30:22;;;;;;;32.20;19.80;;;;;;;1.48;94.23;99500.06;2028053;29;20104;-63
2021/11/28 03:31:52;;;;;;;32.53;21.23;;;;;;;1.47;94.21;99499.19;2015485;29;20058;-62
2021/11/28 03:33:29;;;;;;;30.30;19.50;;;;;;;1.47;94.05;99504.47;2024097;29;20081;-63
2021/11/28 03:34:44;;;;;;;34.15;21.27;;;;;;;1.48;94.22;99507.97;2023911;29;20045;-63
2021/11/28 03:35:59;;;;;;;35.50;20.80;;;;;;;1.48;94.51;99506.19;2023755;29;20045;-62
2021/11/28 03:37:02;;;;;;;31.30;19.85;;;;;;;1.49;94.06;99507.97;2024049;29;20048;-63
2021/11/28 03:38:05;;;;;;;29.40;19.35;;;;;;;1.49;94.09;99510.59;2023840;29;20052;-62
2021/11/28 03:39:12;;;;;;;37.15;22.63;;;;;;;1.49;94.26;99504.44;2024153;29;20049;-63
2021/11/28 03:40:17;;;;;;;30.55;18.75;;;;;;;1.49;94.18;99505.31;2031165;29;20128;-63
2021/11/28 03:41:26;;;;;;;36.08;21.77;;;;;;;1.50;94.51;99506.19;2023875;29;20179;-63
2021/11/28 03:42:28;;;;;;;34.05;20.92;;;;;;;1.50;94.17;99504.41;2016868;29;20034;-63
2021/11/28 03:43:31;;;;;;;30.75;18.85;;;;;;;1.50;94.45;99504.41;2016271;29;20057;-63
2021/11/28 03:44:34;;;;;;;32.50;20.83;;;;;;;1.51;94.18;99502.69;2016388;29;20082;-63
2021/11/28 03:45:46;;;;;;;35.70;22.25;;;;;;;1.50;94.61;99507.06;2017584;29;20113;-63
2021/11/28 03:46:50;;;;;;;38.45;23.00;;;;;;;1.49;94.14;99502.69;2024302;29;20934;-62
2021/11/28 03:47:52;;;;;;;35.97;23.13;;;;;;;1.50;94.09;99508.84;2031504;29;20049;-62
2021/11/28 03:48:56;;;;;;;33.53;19.50;;;;;;;1.50;94.51;99504.41;2031314;29;20053;-63
2021/11/28 03:49:58;;;;;;;35.63;21.65;;;;;;;1.50;94.24;99504.41;2024239;29;20093;-63
2021/11/28 03:51:01;;;;;;;37.53;23.20;;;;;;;1.52;94.79;99507.03;2024324;29;20101;-63
2021/11/28 03:52:03;;;;;;;35.83;22.17;;;;;;;1.52;94.34;99501.78;2023739;29;20045;-63
2021/11/28 03:53:08;;;;;;;35.00;21.30;;;;;;;1.52;94.25;99505.28;2025201;29;20179;-63
2021/11/28 03:54:10;;;;;;;37.47;22.00;;;;;;;1.52;94.50;99505.28;2030981;29;20049;-63
2021/11/28 03:55:14;;;;;;;40.67;24.20;;;;;;;1.52;94.62;99502.63;2023934;29;20367;-62
2021/11/28 03:56:17;;;;;;;43.17;25.77;;;;;;;1.53;94.62;99499.13;2016419;29;20272;-63
2021/11/28 03:57:18;;;;;;;41.83;25.70;;;;;;;1.52;94.65;99502.63;2023735;29;20177;-63
2021/11/28 03:58:21;;;;;;;37.83;23.00;;;;;;;1.52;94.24;99505.28;2023769;29;20124;-63
2021/11/28 03:59:23;;;;;;;40.15;24.70;;;;;;;1.53;94.28;99501.75;2023727;29;20057;-63
2021/11/28 04:00:25;;;;;;;41.67;24.60;;;;;;;1.53;94.22;99499.13;2024316;29;20899;-63
2021/11/28 04:01:34;;;;;;;35.88;21.75;;;;;;;1.55;94.43;99498.25;2031761;29;20124;-63
2021/11/28 04:02:36;;;;;;;42.33;24.38;;;;;;;1.56;94.71;99497.34;2030793;29;20998;-63
2021/11/28 04:03:39;;;;;;;42.83;24.75;;;;;;;1.56;94.81;99499.97;2016031;29;21014;-63
2021/11/28 04:04:57;;;;;;;41.30;23.50;;;;;;;1.56;94.67;99492.94;2018302;29;20045;-63
2021/11/28 04:06:09;;;;;;;43.03;24.80;;;;;;;1.57;94.37;99493.81;2025061;29;20125;-63
2021/11/28 04:07:12;;;;;;;44.53;24.10;;;;;;;1.57;94.46;99497.34;2023905;29;20129;-62
2021/11/28 04:08:15;;;;;;;41.47;24.48;;;;;;;1.58;94.43;99490.28;2023797;29;20049;-63
2021/11/28 04:09:17;;;;;;;45.58;25.38;;;;;;;1.58;94.70;99490.28;2031289;29;27707;-63
2021/11/28 04:10:20;;;;;;;43.20;24.90;;;;;;;1.56;94.95;99495.56;2030835;29;23089;-63
2021/11/28 04:11:22;;;;;;;47.88;26.10;;;;;;;1.59;94.53;99489.41;2023856;29;20096;-62
2021/11/28 04:12:26;;;;;;;49.10;28.00;;;;;;;1.59;94.74;99492.03;2031305;29;20786;-62
2021/11/28 04:13:28;;;;;;;44.47;24.80;;;;;;;1.60;94.96;99499.06;2023533;29;25494;-63
2021/11/28 04:14:30;;;;;;;45.28;25.50;;;;;;;1.60;94.68;99486.75;2024223;29;20946;-63
2021/11/28 04:15:33;;;;;;;47.42;27.73;;;;;;;1.61;94.50;99492.91;2031242;29;20974;-63
2021/11/28 04:16:44;;;;;;;42.13;24.33;;;;;;;1.61;94.59;99495.53;2024958;29;20922;-62
2021/11/28 04:17:48;;;;;;;47.85;26.10;;;;;;;1.61;94.88;99496.41;2031448;29;20040;-63
2021/11/28 04:18:52;;;;;;;52.38;29.02;;;;;;;1.62;94.86;99492.03;2031304;29;20096;-63
2021/11/28 04:19:55;;;;;;;46.03;24.67;;;;;;;1.61;95.23;99491.13;2023953;29;20144;-63
2021/11/28 04:20:58;;;;;;;44.47;25.05;;;;;;;1.63;95.16;99491.97;2023781;29;20102;-63
2021/11/28 04:22:00;;;;;;;50.33;27.73;;;;;;;1.62;95.06;99498.16;2023803;29;20148;-62
2021/11/28 04:23:03;;;;;;;48.45;26.98;;;;;;;1.63;95.03;99491.13;2023986;29;20051;-63
2021/11/28 04:24:06;;;;;;;49.38;27.63;;;;;;;1.63;94.80;99493.75;2023451;29;20053;-63
2021/11/28 04:25:12;;;;;;;49.28;26.98;;;;;;;1.62;94.96;99492.88;2023814;29;20049;-63
2021/11/28 04:26:14;;;;;;;50.45;27.52;;;;;;;1.64;95.26;99492.88;2015711;29;20140;-63
2021/11/28 04:27:19;;;;;;;51.22;27.30;;;;;;;1.64;95.03;99491.09;2017083;29;20042;-63
2021/11/28 04:28:20;;;;;;;51.70;28.23;;;;;;;1.64;95.42;99491.09;2015932;29;20095;-63
2021/11/28 04:29:23;;;;;;;52.63;28.73;;;;;;;1.65;94.94;99497.25;2015980;29;20218;-63
2021/11/28 04:30:26;;;;;;;56.75;29.15;;;;;;;1.65;95.14;99497.25;2031243;29;20049;-63
2021/11/28 04:31:28;;;;;;;50.47;28.00;;;;;;;1.66;95.46;99497.22;2023815;29;20265;-62
2021/11/28 04:32:31;;;;;;;52.08;26.48;;;;;;;1.67;94.81;99504.28;2023384;29;20934;-63
2021/11/28 04:33:34;;;;;;;49.10;25.77;;;;;;;1.67;95.31;99506.00;2016383;29;20068;-62
2021/11/28 04:34:36;;;;;;;50.85;27.58;;;;;;;1.68;94.63;99503.38;2023427;29;20164;-63
2021/11/28 04:35:38;;;;;;;50.75;27.65;;;;;;;1.70;95.10;99503.34;2023821;29;20041;-63
2021/11/28 04:36:41;;;;;;;50.38;26.67;;;;;;;1.68;94.86;99506.00;2024796;29;20044;-63
2021/11/28 04:37:43;;;;;;;49.10;26.65;;;;;;;1.70;94.73;99501.59;2023619;29;20934;-62
2021/11/28 04:38:45;;;;;;;46.85;26.85;;;;;;;1.70;95.16;99500.72;2023727;29;20041;-62
2021/11/28 04:39:51;;;;;;;52.75;28.00;;;;;;;1.70;95.55;99503.34;2016086;29;20041;-62
2021/11/28 04:40:54;;;;;;;49.20;26.45;;;;;;;1.71;94.71;99502.47;2023968;29;20052;-62
2021/11/28 04:41:57;;;;;;;49.65;25.13;;;;;;;1.72;95.37;99504.22;2023381;29;20233;-62
2021/11/28 04:43:00;;;;;;;60.65;30.85;;;;;;;1.71;95.17;99500.72;2023518;29;20258;-62
2021/11/28 04:44:03;;;;;;;62.80;30.10;;;;;;;1.74;95.16;99504.19;2023922;29;20053;-62
2021/11/28 04:45:11;;;;;;;54.10;28.52;;;;;;;1.74;94.72;99509.47;2023435;29;21075;-63
2021/11/28 04:46:15;;;;;;;53.30;27.25;;;;;;;1.74;95.05;99498.91;2016784;29;21252;-62
2021/11/28 04:47:20;;;;;;;48.70;25.05;;;;;;;1.75;95.13;99501.56;2023751;29;20085;-62
2021/11/28 04:48:32;;;;;;;54.92;27.67;;;;;;;1.75;94.97;99504.19;2023489;29;20172;-62
2021/11/28 04:49:47;;;;;;;57.08;27.75;;;;;;;1.77;95.55;99509.47;2025173;29;20193;-62
2021/11/28 04:50:49;;;;;;;59.30;29.55;;;;;;;1.77;94.92;99514.72;2023624;29;20057;-63
2021/11/28 04:51:52;;;;;;;50.78;26.73;;;;;;;1.77;95.19;99507.69;2023418;29;20954;-62
2021/11/28 04:52:56;;;;;;;62.22;30.23;;;;;;;1.77;95.22;99514.72;2023900;29;20191;-62
2021/11/28 04:53:59;;;;;;;53.70;28.13;;;;;;;1.78;95.50;99512.09;2031188;29;20254;-62
2021/11/28 04:55:01;;;;;;;55.47;27.90;;;;;;;1.79;95.23;99508.53;2031396;29;20128;-62
2021/11/28 04:56:03;;;;;;;56.45;29.33;;;;;;;1.80;94.88;99512.06;2030816;29;20873;-62
2021/11/28 04:57:06;;;;;;;48.80;25.90;;;;;;;1.80;95.40;99512.94;2023496;29;20045;-62
2021/11/28 04:58:08;;;;;;;50.70;26.75;;;;;;;1.81;94.94;99504.16;2023516;29;20056;-62
2021/11/28 04:59:10;;;;;;;54.85;28.33;;;;;;;1.81;95.41;99512.06;2031724;29;20116;-62
2021/11/28 05:00:23;;;;;;;59.45;29.17;;;;;;;1.84;95.45;99513.78;2024079;29;20045;-62
2021/11/28 05:01:29;;;;;;;53.40;26.30;;;;;;;1.82;95.21;99513.78;2023570;29;20398;-64
2021/11/28 05:02:55;;;;;;;62.75;29.42;;;;;;;1.83;94.97;99515.56;2024074;29;20049;-62
2021/11/28 05:03:57;;;;;;;62.35;30.90;;;;;;;1.84;95.14;99509.38;2031145;29;20049;-62
2021/11/28 05:05:24;;;;;;;57.97;28.83;;;;;;;1.84;95.14;99513.78;2020925;29;20125;-62
2021/11/28 05:06:29;;;;;;;59.55;29.38;;;;;;;1.84;95.15;99509.38;2025387;29;20161;-62
2021/11/28 05:07:49;;;;;;;54.78;27.83;;;;;;;1.86;95.52;99518.13;2024687;29;20067;-62
2021/11/28 05:08:52;;;;;;;59.53;28.30;;;;;;;1.85;95.35;99511.13;2027473;29;20041;-62
2021/11/28 05:09:57;;;;;;;53.35;27.35;;;;;;;1.86;95.27;99518.13;2025729;29;20041;-64
2021/11/28 05:11:08;;;;;;;51.58;26.23;;;;;;;1.88;95.32;99512.84;2032312;29;20239;-64
2021/11/28 05:12:10;;;;;;;64.63;31.73;;;;;;;1.87;95.17;99514.63;2016715;29;20175;-64
2021/11/28 05:13:14;;;;;;;61.33;31.02;;;;;;;1.88;95.61;99518.13;2017754;29;21057;-63
2021/11/28 05:14:16;;;;;;;58.08;28.38;;;;;;;1.88;95.53;99515.47;2032437;29;22842;-62
2021/11/28 05:15:20;;;;;;;64.05;30.33;;;;;;;1.88;95.44;99513.75;2024592;29;20064;-62
2021/11/28 05:16:55;;;;;;;64.78;32.13;;;;;;;1.89;95.69;99522.53;2029103;29;20041;-64
2021/11/28 05:18:02;;;;;;;61.85;31.58;;;;;;;1.89;95.35;99520.75;2032445;29;21149;-64
2021/11/28 05:19:05;;;;;;;61.20;30.45;;;;;;;1.90;95.20;99518.97;2024674;29;20953;-64
2021/11/28 05:20:15;;;;;;;60.13;27.80;;;;;;;1.93;95.13;99520.72;2025430;29;20923;-64
2021/11/28 05:21:23;;;;;;;71.72;33.42;;;;;;;1.92;95.05;99514.59;2024836;29;20061;-64
2021/11/28 05:22:30;;;;;;;58.80;29.92;;;;;;;1.93;95.07;99510.16;2024679;29;20089;-62
2021/11/28 05:23:36;;;;;;;67.65;31.85;;;;;;;1.92;95.21;99517.22;2024730;29;20049;-62
2021/11/28 05:24:37;;;;;;;63.75;30.95;;;;;;;1.94;94.96;99520.72;2025109;29;20195;-64
2021/11/28 05:25:40;;;;;;;63.63;30.45;;;;;;;1.94;95.26;99514.53;2024581;29;20076;-64
2021/11/28 05:26:42;;;;;;;63.40;30.23;;;;;;;1.94;95.74;99519.81;2024340;29;21045;-62
2021/11/28 05:27:47;;;;;;;65.97;30.17;;;;;;;1.95;95.21;99516.31;2032552;29;24736;-64
2021/11/28 05:28:49;;;;;;;61.80;31.67;;;;;;;1.96;95.15;99523.34;2032511;29;20817;-62
2021/11/28 05:29:54;;;;;;;67.20;32.10;;;;;;;1.95;95.15;99525.09;2032388;29;20056;-62
2021/11/28 05:30:57;;;;;;;72.93;33.83;;;;;;;1.95;95.24;99522.44;2025054;29;20053;-64
2021/11/28 05:32:23;;;;;;;67.38;31.92;;;;;;;1.95;95.74;99519.81;2029366;29;20084;-62
2021/11/28 05:33:46;;;;;;;76.70;34.42;;;;;;;1.97;95.80;99527.72;2025455;29;20799;-62
2021/11/28 05:35:08;;;;;;;77.07;33.97;;;;;;;1.95;95.56;99522.44;2025092;29;20146;-62
2021/11/28 05:36:48;;;;;;;63.83;30.83;;;;;;;1.97;95.57;99525.06;2024504;29;20105;-62
2021/11/28 05:37:51;;;;;;;71.35;34.30;;;;;;;1.96;95.11;99513.66;2016319;29;20076;-62
2021/11/28 05:38:58;;;;;;;70.15;33.70;;;;;;;1.98;95.42;99524.19;2017301;29;20808;-64
2021/11/28 05:40:02;;;;;;;68.88;34.20;;;;;;;1.98;95.81;99521.56;2024249;29;20052;-62
2021/11/28 05:41:07;;;;;;;70.97;34.92;;;;;;;1.98;95.30;99517.16;2024118;29;20140;-63
2021/11/28 05:42:11;;;;;;;78.65;37.42;;;;;;;1.97;95.45;99523.31;2024012;29;20117;-63
2021/11/28 05:43:16;;;;;;;72.03;34.88;;;;;;;1.99;95.28;99525.94;2024732;29;20060;-62
2021/11/28 05:44:18;;;;;;;73.95;33.58;;;;;;;1.98;95.57;99522.41;2024287;29;20990;-62
2021/11/28 05:45:40;;;;;;;70.10;34.03;;;;;;;2.00;95.33;99522.41;2024828;29;20092;-62
2021/11/28 05:47:17;;;;;;;68.45;31.20;;;;;;;2.00;95.60;99519.78;2016364;29;20053;-62
2021/11/28 05:48:45;;;;;;;70.55;32.92;;;;;;;2.00;95.31;99528.56;2016567;29;20045;-64
2021/11/28 05:50:07;;;;;;;75.03;35.55;;;;;;;2.01;95.88;99529.41;2017926;29;20959;-62
2021/11/28 05:51:14;;;;;;;69.60;31.52;;;;;;;2.02;95.77;99528.53;2025732;29;20033;-64
2021/11/28 05:52:16;;;;;;;74.22;35.35;;;;;;;2.01;95.62;99522.41;2032379;29;20107;-64
2021/11/28 05:53:18;;;;;;;77.45;35.55;;;;;;;2.02;95.23;99521.50;2024776;29;20052;-63
2021/11/28 05:54:20;;;;;;;88.38;37.88;;;;;;;2.01;95.24;99526.78;2025344;29;20037;-62
2021/11/28 05:55:23;;;;;;;84.43;38.50;;;;;;;2.02;95.82;99526.75;2025577;29;20037;-63
2021/11/28 05:56:31;;;;;;;77.55;36.33;;;;;;;2.02;95.71;99525.91;2024291;29;20049;-63
2021/11/28 05:57:39;;;;;;;75.78;36.53;;;;;;;2.03;95.37;99536.44;2017698;29;20056;-63
2021/11/28 05:58:41;;;;;;;74.95;34.28;;;;;;;2.05;95.47;99528.50;2017864;29;20145;-64
2021/11/28 05:59:43;;;;;;;76.43;33.78;;;;;;;2.05;95.38;99524.09;2024533;29;20045;-64
2021/11/28 06:00:45;;;;;;;83.13;38.30;;;;;;;2.06;95.43;99536.44;2032457;29;20184;-62